CheckWX is a tool to help pilots better visualize weather data.  It is not intended as a substitute for an official pre-flight weather briefing.

08:48:14 UTC

SCIE TAF
Carriel Sur Airport
Concepcion, Chile
TAF SCIE 051010Z 0512/0612 20006KT CAVOK TX18/0518Z TN12/0611Z TEMPO 0512/0515 24004KT 6000 SCT010 BECMG 0518/0520 24012KT BECMG 0602/0604 2000KT TEMPO 0603/0609 20015G25KT 7000 FEW010

Apr-5@
12:00 UTC

Apr-5 @ 12:00 UTC

Apr-5@
18:00 UTC

Apr-5 @ 18:00 UTC

TAF SCIE 051010Z 0512/0612 20006KT CAVOK TX18/0518Z TN12/0611Z

Expired

Wind
  • 200° at 6 KTS
Cloud Levels
  • No significant clouds

Apr-5@
12:00 UTC

Apr-5 @ 12:00 UTC

Apr-5@
15:00 UTC

Apr-5 @ 15:00 UTC

TEMPO 0512/0515 24004KT 6000 SCT010

Expired

Wind
  • 240° at 4 KTS
Cloud Levels
  • Scattered at 1,000' AGL

Apr-5@
18:00 UTC

Apr-5 @ 18:00 UTC

Apr-6@
02:00 UTC

Apr-6 @ 02:00 UTC

BECMG 0518/0520 24012KT

Expired

Wind
  • 240° at 12 KTS
Cloud Levels
  • No significant clouds

Apr-6@
02:00 UTC

Apr-6 @ 02:00 UTC

Apr-6@
12:00 UTC

Apr-6 @ 12:00 UTC

BECMG 0602/0604 2000KT

Becoming

Becoming Conditions expected by Mon, Apr 6, 2020 @ 04:00 UTC

Wind
  • 240° at 12 KTS
Cloud Levels
  • No significant clouds

Apr-6@
03:00 UTC

Apr-6 @ 03:00 UTC

Apr-6@
09:00 UTC

Apr-6 @ 09:00 UTC

TEMPO 0603/0609 20015G25KT 7000 FEW010

Temporary

Temporary Changes expected for less than half the time period

Wind
  • 200° at 15 KTS
  • {Gusting to 25 KTS
Cloud Levels
  • Few at 1,000' AGL